Latest Weather Observations for Point Wilson

IDV60901

Issued at 3:21 am EST Thursday 5 May 2016 (issued every 10 minutes, with the page automatically refreshed every 10 minutes)

About weather observations | Map of Melbourne area stations | Latest observations for Melbourne area | Other Formats
Station Details ID: 087166 Name: POINT WILSON Lat: -38.10 Lon: 144.54 Height: 18.0 m
Data from the previous 72 hours. | See also: Recent months for locations in Victoria
Date/Time
EST
Tmp

°C
App
Tmp
°C
Dew
Point
°C
Rel
Hum
%
Delta-T

°C
Wind Press
QNH
hPa
Press
MSL
hPa
Rain
since
9 am
mm
Dir
 
Spd
km/h
Gust
km/h
Spd
kts
Gust
kts
05/03:00am - - - - - N 30 33 16 18 - - -
05/02:30am - - - - - N 30 33 16 18 - - -
05/02:00am - - - - - N 30 33 16 18 - - -
05/01:30am - - - - - N 30 35 16 19 - - -
05/01:00am - - - - - N 26 30 14 16 - - -
05/12:30am - - - - - N 26 32 14 17 - - -
05/12:00am - - - - - NNE 22 26 12 14 - - -
 
Date/Time
EST
Tmp

°C
App
Tmp
°C
Dew
Point
°C
Rel
Hum
%
Delta-T

°C
Wind Press
QNH
hPa
Press
MSL
hPa
Rain
since
9 am
mm
Dir
 
Spd
km/h
Gust
km/h
Spd
kts
Gust
kts
04/11:30pm - - - - - NNE 22 24 12 13 - - -
04/11:00pm - - - - - N 26 30 14 16 - - -
04/10:30pm - - - - - N 32 35 17 19 - - -
04/10:00pm - - - - - N 30 35 16 19 - - -
04/09:30pm - - - - - N 32 39 17 21 - - -
04/09:00pm - - - - - N 32 37 17 20 - - -
04/08:30pm - - - - - N 35 39 19 21 - - -
04/08:00pm - - - - - N 33 37 18 20 - - -
04/07:30pm - - - - - N 32 35 17 19 - - -
04/07:00pm - - - - - N 26 30 14 16 - - -
04/06:30pm - - - - - N 32 35 17 19 - - -
04/06:00pm - - - - - N 28 32 15 17 - - -
04/05:30pm - - - - - N 24 30 13 16 - - -
04/05:00pm - - - - - N 28 33 15 18 - - -
04/04:30pm - - - - - NNW 32 39 17 21 - - -
04/04:00pm - - - - - NNW 28 33 15 18 - - -
04/03:30pm - - - - - NNW 30 37 16 20 - - -
04/03:00pm - - - - - NW 35 46 19 25 - - -
04/02:30pm - - - - - NNW 28 35 15 19 - - -
04/02:00pm - - - - - NW 32 43 17 23 - - -
04/01:30pm - - - - - NW 30 37 16 20 - - -
04/01:00pm - - - - - WNW 26 37 14 20 - - -
04/12:30pm - - - - - NW 26 35 14 19 - - -
04/12:00pm - - - - - NW 24 35 13 19 - - -
04/11:30am - - - - - NW 26 33 14 18 - - -
04/11:00am - - - - - NW 24 30 13 16 - - -
04/10:30am - - - - - NW 28 35 15 19 - - -
04/10:00am - - - - - NW 28 33 15 18 - - -
04/09:30am - - - - - NW 28 35 15 19 - - -
04/09:00am - - - - - NW 28 32 15 17 - - -
04/08:30am - - - - - NNW 24 28 13 15 - - -
04/08:00am - - - - - NNW 19 22 10 12 - - -
04/07:30am - - - - - NNW 17 22 9 12 - - -
04/07:00am - - - - - NNW 17 20 9 11 - - -
04/06:30am - - - - - NW 20 26 11 14 - - -
04/06:00am - - - - - NNW 19 22 10 12 - - -
04/05:30am - - - - - NW 22 28 12 15 - - -
04/05:00am - - - - - NW 26 32 14 17 - - -
04/04:30am - - - - - NW 26 32 14 17 - - -
04/04:00am - - - - - NNW 26 30 14 16 - - -
04/03:30am - - - - - NW 30 33 16 18 - - -
04/03:00am - - - - - NW 24 28 13 15 - - -
04/02:30am - - - - - NW 20 24 11 13 - - -
04/02:00am - - - - - NW 24 30 13 16 - - -
04/01:30am - - - - - NW 26 30 14 16 - - -
04/01:00am - - - - - WNW 24 30 13 16 - - -
04/12:30am - - - - - WNW 28 33 15 18 - - -
04/12:00am - - - - - WNW 26 33 14 18 - - -
 
Date/Time
EST
Tmp

°C
App
Tmp
°C
Dew
Point
°C
Rel
Hum
%
Delta-T

°C
Wind Press
QNH
hPa
Press
MSL
hPa
Rain
since
9 am
mm
Dir
 
Spd
km/h
Gust
km/h
Spd
kts
Gust
kts
03/11:30pm - - - - - WNW 24 30 13 16 - - -
03/11:00pm - - - - - WNW 24 30 13 16 - - -
03/10:30pm - - - - - WNW 26 30 14 16 - - -
03/10:00pm - - - - - NW 20 24 11 13 - - -
03/09:30pm - - - - - WNW 19 22 10 12 - - -
03/09:00pm - - - - - NNW 15 24 8 13 - - -
03/08:30pm - - - - - NW 19 20 10 11 - - -
03/08:00pm - - - - - NW 24 30 13 16 - - -
03/07:30pm - - - - - WNW 26 35 14 19 - - -
03/07:00pm - - - - - W 35 44 19 24 - - -
03/06:30pm - - - - - W 41 50 22 27 - - -
03/06:00pm - - - - - W 43 52 23 28 - - -
03/05:40pm - - - - - W 37 56 20 30 - - -
03/05:30pm - - - - - WNW 30 39 16 21 - - -
03/05:25pm - - - - - WNW 30 43 16 23 - - -
03/05:00pm - - - - - W 43 54 23 29 - - -
03/04:30pm - - - - - W 54 69 29 37 - - -
03/04:10pm - - - - - W 52 70 28 38 - - -
03/04:00pm - - - - - W 57 72 31 39 - - -
03/03:52pm - - - - - W 63 70 34 38 - - -
03/03:30pm - - - - - W 41 57 22 31 - - -
03/03:27pm - - - - - W 37 57 20 31 - - -
03/03:00pm - - - - - W 57 85 31 46 - - -
03/02:33pm - - - - - W 59 82 32 44 - - -
03/02:31pm - - - - - W 56 78 30 42 - - -
03/02:30pm - - - - - NW 56 78 30 42 - - -
03/02:15pm - - - - - NNW 59 80 32 43 - - -
03/02:00pm - - - - - NNW 56 67 30 36 - - -
03/01:32pm - - - - - NNW 57 76 31 41 - - -
03/01:30pm - - - - - NNW 59 76 32 41 - - -
03/01:00pm - - - - - NNW 59 80 32 43 - - -
03/12:49pm - - - - - NNW 59 78 32 42 - - -
03/12:30pm - - - - - N 57 72 31 39 - - -
03/12:00pm - - - - - NNW 59 76 32 41 - - -
03/11:39am - - - - - NNW 59 82 32 44 - - -
03/11:30am - - - - - NNW 57 69 31 37 - - -
03/11:00am - - - - - NNW 65 80 35 43 - - -
03/10:41am - - - - - NNW 63 82 34 44 - - -
03/10:30am - - - - - NNW 69 83 37 45 - - -
03/10:10am - - - - - NNW 69 87 37 47 - - -
03/10:00am - - - - - NNW 69 85 37 46 - - -
03/09:35am - - - - - N 61 83 33 45 - - -
03/09:30am - - - - - NNW 63 78 34 42 - - -
03/09:00am - - - - - N 59 78 32 42 - - -
03/08:59am - - - - - N 59 78 32 42 - - -
03/08:30am - - - - - N 59 72 32 39 - - -
03/08:00am - - - - - N 61 74 33 40 - - -
03/07:30am - - - - - N 54 72 29 39 - - -
03/07:27am - - - - - N 54 72 29 39 - - -
03/07:00am - - - - - N 54 63 29 34 - - -
03/06:30am - - - - - N 52 69 28 37 - - -
03/06:22am - - - - - N 50 69 27 37 - - -
03/06:00am - - - - - N 41 54 22 29 - - -
03/05:30am - - - - - N 39 52 21 28 - - -
03/05:00am - - - - - N 37 52 20 28 - - -
03/04:30am - - - - - N 33 43 18 23 - - -
03/04:00am - - - - - N 32 43 17 23 - - -
03/03:30am - - - - - N 37 44 20 24 - - -
03/03:00am - - - - - N 46 54 25 29 - - -
03/02:30am - - - - - N 39 44 21 24 - - -
03/02:00am - - - - - N 43 52 23 28 - - -
03/01:30am - - - - - N 48 56 26 30 - - -
03/01:00am - - - - - N 46 59 25 32 - - -
03/12:30am - - - - - N 48 59 26 32 - - -
03/12:00am - - - - - N 43 50 23 27 - - -
 
Date/Time
EST
Tmp

°C
App
Tmp
°C
Dew
Point
°C
Rel
Hum
%
Delta-T

°C
Wind Press
QNH
hPa
Press
MSL
hPa
Rain
since
9 am
mm
Dir
 
Spd
km/h
Gust
km/h
Spd
kts
Gust
kts
02/11:30pm - - - - - N 43 52 23 28 - - -
02/11:00pm - - - - - N 41 48 22 26 - - -
02/10:30pm - - - - - N 46 61 25 33 - - -
02/10:00pm - - - - - N 37 44 20 24 - - -
02/09:30pm - - - - - N 37 43 20 23 - - -
02/09:00pm - - - - - N 32 39 17 21 - - -
02/08:30pm - - - - - N 28 33 15 18 - - -
02/08:00pm - - - - - NNE 28 32 15 17 - - -
02/07:30pm - - - - - NNE 32 37 17 20 - - -
02/07:00pm - - - - - N 33 39 18 21 - - -
02/06:30pm - - - - - N 39 46 21 25 - - -
02/06:00pm - - - - - N 41 48 22 26 - - -
02/05:30pm - - - - - N 41 57 22 31 - - -
02/05:00pm - - - - - N 39 48 21 26 - - -
02/04:30pm - - - - - N 43 52 23 28 - - -
02/04:00pm - - - - - NNW 41 52 22 28 - - -
02/03:30pm - - - - - NNW 41 50 22 27 - - -
02/03:00pm - - - - - NNW 44 59 24 32 - - -
02/02:30pm - - - - - NNW 44 57 24 31 - - -
02/02:00pm - - - - - NNW 39 54 21 29 - - -
02/01:30pm - - - - - NNW 44 57 24 31 - - -
02/01:00pm - - - - - NNW 46 56 25 30 - - -
02/12:30pm - - - - - NNW 39 50 21 27 - - -
02/12:00pm - - - - - NNW 41 54 22 29 - - -
02/11:30am - - - - - NNW 39 54 21 29 - - -
02/11:00am - - - - - NNW 43 56 23 30 - - -
02/10:30am - - - - - NNW 37 50 20 27 - - -
02/10:00am - - - - - N 37 43 20 23 - - -
02/09:30am - - - - - N 32 37 17 20 - - -
02/09:00am - - - - - N 33 39 18 21 - - -
02/08:30am - - - - - NNW 33 39 18 21 - - -
02/08:00am - - - - - N 30 33 16 18 - - -
02/07:30am - - - - - N 28 32 15 17 - - -
02/07:00am - - - - - N 28 32 15 17 - - -
02/06:30am - - - - - NNW 30 33 16 18 - - -
02/06:00am - - - - - NNW 30 35 16 19 - - -
02/05:30am - - - - - N 30 33 16 18 - - -
02/05:00am - - - - - NNW 32 37 17 20 - - -
02/04:30am - - - - - NNW 26 32 14 17 - - -
02/04:00am - - - - - NNW 20 24 11 13 - - -
02/03:30am - - - - - N 19 28 10 15 - - -

Latest Capital City Observations: Canberra | Sydney | Melbourne | Brisbane | Adelaide | Perth | Hobart | Darwin

Other Formats:

Comma delimited format used in spreadsheet applications
http://www.bom.gov.au/fwo/IDV60901/IDV60901.94847.axf

JavaScript Object Notation format (JSON) in row-major order
http://www.bom.gov.au/fwo/IDV60901/IDV60901.94847.json